sensor_id;sensor_type;location;lat;lon;timestamp;temperature;humidity
44565;DHT22;30275;51.822;-0.326;2022-07-29T00:02:13;22.00;81.70
44565;DHT22;30275;51.822;-0.326;2022-07-29T00:04:39;22.00;81.80
44565;DHT22;30275;51.822;-0.326;2022-07-29T00:07:05;21.90;81.80
44565;DHT22;30275;51.822;-0.326;2022-07-29T00:09:31;22.00;82.00
44565;DHT22;30275;51.822;-0.326;2022-07-29T00:11:59;22.00;82.10
44565;DHT22;30275;51.822;-0.326;2022-07-29T00:14:25;22.00;82.00
44565;DHT22;30275;51.822;-0.326;2022-07-29T00:16:51;21.90;82.10
44565;DHT22;30275;51.822;-0.326;2022-07-29T00:19:17;21.90;82.30
44565;DHT22;30275;51.822;-0.326;2022-07-29T00:21:43;21.90;82.40
44565;DHT22;30275;51.822;-0.326;2022-07-29T00:24:08;21.90;82.70
44565;DHT22;30275;51.822;-0.326;2022-07-29T00:26:34;21.90;83.60
44565;DHT22;30275;51.822;-0.326;2022-07-29T00:29:01;21.90;83.00
44565;DHT22;30275;51.822;-0.326;2022-07-29T00:31:27;21.90;83.10
44565;DHT22;30275;51.822;-0.326;2022-07-29T00:33:53;21.90;83.10
44565;DHT22;30275;51.822;-0.326;2022-07-29T00:36:19;21.90;83.00
44565;DHT22;30275;51.822;-0.326;2022-07-29T00:38:47;21.90;83.10
44565;DHT22;30275;51.822;-0.326;2022-07-29T00:41:12;21.90;83.10
44565;DHT22;30275;51.822;-0.326;2022-07-29T00:43:38;21.90;83.20
44565;DHT22;30275;51.822;-0.326;2022-07-29T00:46:04;21.90;83.30
44565;DHT22;30275;51.822;-0.326;2022-07-29T00:48:30;21.90;83.40
44565;DHT22;30275;51.822;-0.326;2022-07-29T00:50:57;21.90;83.40
44565;DHT22;30275;51.822;-0.326;2022-07-29T00:53:24;21.90;83.70
44565;DHT22;30275;51.822;-0.326;2022-07-29T00:55:50;21.90;83.70
44565;DHT22;30275;51.822;-0.326;2022-07-29T00:58:16;21.90;83.80
44565;DHT22;30275;51.822;-0.326;2022-07-29T01:00:42;21.90;83.80
44565;DHT22;30275;51.822;-0.326;2022-07-29T01:03:08;21.90;83.90
44565;DHT22;30275;51.822;-0.326;2022-07-29T01:05:35;21.90;84.00
44565;DHT22;30275;51.822;-0.326;2022-07-29T01:08:02;21.90;84.10
44565;DHT22;30275;51.822;-0.326;2022-07-29T01:10:28;21.90;84.20
44565;DHT22;30275;51.822;-0.326;2022-07-29T01:12:57;21.90;84.20
44565;DHT22;30275;51.822;-0.326;2022-07-29T01:15:24;21.90;84.40
44565;DHT22;30275;51.822;-0.326;2022-07-29T01:18:03;21.90;84.40
44565;DHT22;30275;51.822;-0.326;2022-07-29T01:34:25;21.90;84.80
44565;DHT22;30275;51.822;-0.326;2022-07-29T01:37:07;21.90;85.00
44565;DHT22;30275;51.822;-0.326;2022-07-29T01:39:36;21.80;85.30
44565;DHT22;30275;51.822;-0.326;2022-07-29T01:42:26;21.90;85.40
44565;DHT22;30275;51.822;-0.326;2022-07-29T01:45:12;21.80;85.50
44565;DHT22;30275;51.822;-0.326;2022-07-29T01:50:34;21.80;85.40
44565;DHT22;30275;51.822;-0.326;2022-07-29T01:53:02;21.90;85.50
44565;DHT22;30275;51.822;-0.326;2022-07-29T01:55:32;21.80;85.40
44565;DHT22;30275;51.822;-0.326;2022-07-29T01:58:00;21.80;85.50
44565;DHT22;30275;51.822;-0.326;2022-07-29T02:00:27;21.80;85.50
44565;DHT22;30275;51.822;-0.326;2022-07-29T02:02:54;21.80;85.80
44565;DHT22;30275;51.822;-0.326;2022-07-29T02:05:22;21.80;85.60
44565;DHT22;30275;51.822;-0.326;2022-07-29T02:07:49;21.80;85.70
44565;DHT22;30275;51.822;-0.326;2022-07-29T02:10:20;21.80;85.60
44565;DHT22;30275;51.822;-0.326;2022-07-29T02:12:47;21.80;85.70
44565;DHT22;30275;51.822;-0.326;2022-07-29T02:15:15;21.80;85.90
44565;DHT22;30275;51.822;-0.326;2022-07-29T02:17:45;21.80;86.00
44565;DHT22;30275;51.822;-0.326;2022-07-29T02:20:14;21.80;86.00
44565;DHT22;30275;51.822;-0.326;2022-07-29T02:22:41;21.80;86.00
44565;DHT22;30275;51.822;-0.326;2022-07-29T02:25:10;21.80;86.00
44565;DHT22;30275;51.822;-0.326;2022-07-29T02:27:37;21.80;86.00
44565;DHT22;30275;51.822;-0.326;2022-07-29T02:30:06;21.80;86.40
44565;DHT22;30275;51.822;-0.326;2022-07-29T02:32:34;21.80;86.40
44565;DHT22;30275;51.822;-0.326;2022-07-29T02:35:01;21.80;86.40
44565;DHT22;30275;51.822;-0.326;2022-07-29T02:37:28;21.80;86.50
44565;DHT22;30275;51.822;-0.326;2022-07-29T02:39:55;21.80;86.40
44565;DHT22;30275;51.822;-0.326;2022-07-29T02:42:23;21.70;86.30
44565;DHT22;30275;51.822;-0.326;2022-07-29T02:44:51;21.80;86.40
44565;DHT22;30275;51.822;-0.326;2022-07-29T02:52:44;21.70;86.50
44565;DHT22;30275;51.822;-0.326;2022-07-29T02:55:19;21.70;86.70
44565;DHT22;30275;51.822;-0.326;2022-07-29T02:58:01;21.70;86.60
44565;DHT22;30275;51.822;-0.326;2022-07-29T03:00:28;21.70;86.60
44565;DHT22;30275;51.822;-0.326;2022-07-29T03:02:58;21.70;86.50
44565;DHT22;30275;51.822;-0.326;2022-07-29T03:05:25;21.60;86.40
44565;DHT22;30275;51.822;-0.326;2022-07-29T03:07:55;21.60;86.40
44565;DHT22;30275;51.822;-0.326;2022-07-29T03:10:23;21.60;86.40
44565;DHT22;30275;51.822;-0.326;2022-07-29T03:12:50;21.60;86.40
44565;DHT22;30275;51.822;-0.326;2022-07-29T03:15:17;21.60;86.60
44565;DHT22;30275;51.822;-0.326;2022-07-29T03:17:43;21.60;86.70
44565;DHT22;30275;51.822;-0.326;2022-07-29T03:20:10;21.60;86.80
44565;DHT22;30275;51.822;-0.326;2022-07-29T03:22:41;21.60;86.90
44565;DHT22;30275;51.822;-0.326;2022-07-29T03:25:17;21.60;86.80
44565;DHT22;30275;51.822;-0.326;2022-07-29T03:27:44;21.60;86.90
44565;DHT22;30275;51.822;-0.326;2022-07-29T03:30:11;21.60;87.00
44565;DHT22;30275;51.822;-0.326;2022-07-29T03:32:38;21.60;87.00
44565;DHT22;30275;51.822;-0.326;2022-07-29T03:35:05;21.60;87.00
44565;DHT22;30275;51.822;-0.326;2022-07-29T03:37:31;21.60;87.00
44565;DHT22;30275;51.822;-0.326;2022-07-29T03:39:57;21.60;87.10
44565;DHT22;30275;51.822;-0.326;2022-07-29T03:42:26;21.60;87.20
44565;DHT22;30275;51.822;-0.326;2022-07-29T03:44:54;21.60;87.10
44565;DHT22;30275;51.822;-0.326;2022-07-29T03:47:24;21.60;87.30
44565;DHT22;30275;51.822;-0.326;2022-07-29T03:49:57;21.60;87.20
44565;DHT22;30275;51.822;-0.326;2022-07-29T03:52:25;21.60;87.60
44565;DHT22;30275;51.822;-0.326;2022-07-29T03:54:50;21.60;87.40
44565;DHT22;30275;51.822;-0.326;2022-07-29T03:57:17;21.50;87.20
44565;DHT22;30275;51.822;-0.326;2022-07-29T03:59:44;21.50;87.10
44565;DHT22;30275;51.822;-0.326;2022-07-29T04:02:11;21.50;86.90
44565;DHT22;30275;51.822;-0.326;2022-07-29T04:04:37;21.50;86.90
44565;DHT22;30275;51.822;-0.326;2022-07-29T04:07:04;21.40;86.90
44565;DHT22;30275;51.822;-0.326;2022-07-29T04:09:30;21.40;86.80
44565;DHT22;30275;51.822;-0.326;2022-07-29T04:11:56;21.40;86.90
44565;DHT22;30275;51.822;-0.326;2022-07-29T04:14:22;21.40;86.90
44565;DHT22;30275;51.822;-0.326;2022-07-29T04:16:47;21.30;86.80
44565;DHT22;30275;51.822;-0.326;2022-07-29T04:19:13;21.30;86.70
44565;DHT22;30275;51.822;-0.326;2022-07-29T04:21:40;21.30;86.90
44565;DHT22;30275;51.822;-0.326;2022-07-29T04:24:07;21.30;87.10
44565;DHT22;30275;51.822;-0.326;2022-07-29T04:26:33;21.30;87.00
44565;DHT22;30275;51.822;-0.326;2022-07-29T04:28:59;21.30;86.90
44565;DHT22;30275;51.822;-0.326;2022-07-29T04:31:25;21.30;87.00
44565;DHT22;30275;51.822;-0.326;2022-07-29T04:33:50;21.30;87.00
44565;DHT22;30275;51.822;-0.326;2022-07-29T04:36:16;21.30;86.90
44565;DHT22;30275;51.822;-0.326;2022-07-29T04:38:42;21.30;87.00
44565;DHT22;30275;51.822;-0.326;2022-07-29T04:41:07;21.20;87.00
44565;DHT22;30275;51.822;-0.326;2022-07-29T04:43:34;21.20;86.90
44565;DHT22;30275;51.822;-0.326;2022-07-29T04:46:00;21.20;87.00
44565;DHT22;30275;51.822;-0.326;2022-07-29T04:48:26;21.20;87.10
44565;DHT22;30275;51.822;-0.326;2022-07-29T04:50:52;21.20;87.10
44565;DHT22;30275;51.822;-0.326;2022-07-29T04:53:18;21.20;87.10
44565;DHT22;30275;51.822;-0.326;2022-07-29T04:55:44;21.20;87.20
44565;DHT22;30275;51.822;-0.326;2022-07-29T04:58:10;21.20;87.30
44565;DHT22;30275;51.822;-0.326;2022-07-29T05:00:36;21.20;87.40
44565;DHT22;30275;51.822;-0.326;2022-07-29T05:03:03;21.20;87.60
44565;DHT22;30275;51.822;-0.326;2022-07-29T05:05:28;21.10;87.50
44565;DHT22;30275;51.822;-0.326;2022-07-29T05:07:54;21.20;87.60
44565;DHT22;30275;51.822;-0.326;2022-07-29T05:10:20;21.10;87.60
44565;DHT22;30275;51.822;-0.326;2022-07-29T05:12:46;21.10;87.60
44565;DHT22;30275;51.822;-0.326;2022-07-29T05:15:12;21.10;87.50
44565;DHT22;30275;51.822;-0.326;2022-07-29T05:17:38;21.10;87.60
44565;DHT22;30275;51.822;-0.326;2022-07-29T05:20:05;21.10;87.60
44565;DHT22;30275;51.822;-0.326;2022-07-29T05:22:30;21.10;87.60
44565;DHT22;30275;51.822;-0.326;2022-07-29T05:24:56;21.10;88.00
44565;DHT22;30275;51.822;-0.326;2022-07-29T05:27:22;21.10;87.30
44565;DHT22;30275;51.822;-0.326;2022-07-29T05:29:47;21.10;87.30
44565;DHT22;30275;51.822;-0.326;2022-07-29T05:32:13;21.10;87.40
44565;DHT22;30275;51.822;-0.326;2022-07-29T05:34:40;21.10;87.50
44565;DHT22;30275;51.822;-0.326;2022-07-29T05:37:06;21.10;88.00
44565;DHT22;30275;51.822;-0.326;2022-07-29T05:39:31;21.10;87.50
44565;DHT22;30275;51.822;-0.326;2022-07-29T05:41:57;21.10;87.50
44565;DHT22;30275;51.822;-0.326;2022-07-29T05:44:23;21.10;87.50
44565;DHT22;30275;51.822;-0.326;2022-07-29T05:46:48;21.10;87.50
44565;DHT22;30275;51.822;-0.326;2022-07-29T05:49:14;21.10;87.60
44565;DHT22;30275;51.822;-0.326;2022-07-29T05:51:40;21.10;87.60
44565;DHT22;30275;51.822;-0.326;2022-07-29T05:54:06;21.10;87.50
44565;DHT22;30275;51.822;-0.326;2022-07-29T05:56:31;21.10;87.50
44565;DHT22;30275;51.822;-0.326;2022-07-29T05:58:57;21.20;87.60
44565;DHT22;30275;51.822;-0.326;2022-07-29T06:01:23;21.20;87.50
44565;DHT22;30275;51.822;-0.326;2022-07-29T06:03:49;21.20;87.50
44565;DHT22;30275;51.822;-0.326;2022-07-29T06:06:15;21.20;87.50
44565;DHT22;30275;51.822;-0.326;2022-07-29T06:08:41;21.30;87.50
44565;DHT22;30275;51.822;-0.326;2022-07-29T06:11:06;21.30;87.50
44565;DHT22;30275;51.822;-0.326;2022-07-29T06:13:34;21.30;88.10
44565;DHT22;30275;51.822;-0.326;2022-07-29T06:15:59;21.40;88.00
44565;DHT22;30275;51.822;-0.326;2022-07-29T06:18:25;21.40;90.10
44565;DHT22;30275;51.822;-0.326;2022-07-29T06:20:51;21.40;90.20
44565;DHT22;30275;51.822;-0.326;2022-07-29T06:23:17;21.40;90.80
44565;DHT22;30275;51.822;-0.326;2022-07-29T06:25:43;21.50;92.20
44565;DHT22;30275;51.822;-0.326;2022-07-29T06:28:09;21.50;92.20
44565;DHT22;30275;51.822;-0.326;2022-07-29T06:30:35;21.50;91.90
44565;DHT22;30275;51.822;-0.326;2022-07-29T06:33:00;21.40;92.50
44565;DHT22;30275;51.822;-0.326;2022-07-29T06:35:27;21.40;92.00
44565;DHT22;30275;51.822;-0.326;2022-07-29T06:37:53;21.40;92.10
44565;DHT22;30275;51.822;-0.326;2022-07-29T06:40:19;21.40;91.60
44565;DHT22;30275;51.822;-0.326;2022-07-29T06:43:03;21.50;91.50
44565;DHT22;30275;51.822;-0.326;2022-07-29T06:45:29;21.50;91.80
44565;DHT22;30275;51.822;-0.326;2022-07-29T06:47:55;21.50;91.90
44565;DHT22;30275;51.822;-0.326;2022-07-29T06:50:20;21.50;91.90
44565;DHT22;30275;51.822;-0.326;2022-07-29T06:52:47;21.60;91.90
44565;DHT22;30275;51.822;-0.326;2022-07-29T06:55:13;21.60;91.90
44565;DHT22;30275;51.822;-0.326;2022-07-29T06:57:39;21.50;91.20
44565;DHT22;30275;51.822;-0.326;2022-07-29T07:00:06;21.50;91.80
44565;DHT22;30275;51.822;-0.326;2022-07-29T07:02:32;21.50;92.30
44565;DHT22;30275;51.822;-0.326;2022-07-29T07:04:58;21.50;91.50
44565;DHT22;30275;51.822;-0.326;2022-07-29T07:07:24;21.40;91.40
44565;DHT22;30275;51.822;-0.326;2022-07-29T07:09:50;21.50;91.40
44565;DHT22;30275;51.822;-0.326;2022-07-29T07:12:16;21.50;91.40
44565;DHT22;30275;51.822;-0.326;2022-07-29T07:14:41;21.50;91.70
44565;DHT22;30275;51.822;-0.326;2022-07-29T07:17:07;21.60;92.70
44565;DHT22;30275;51.822;-0.326;2022-07-29T07:19:33;21.60;93.00
44565;DHT22;30275;51.822;-0.326;2022-07-29T07:21:58;21.60;92.20
44565;DHT22;30275;51.822;-0.326;2022-07-29T07:24:24;21.50;92.00
44565;DHT22;30275;51.822;-0.326;2022-07-29T07:26:50;21.50;92.00
44565;DHT22;30275;51.822;-0.326;2022-07-29T07:29:16;21.60;92.00
44565;DHT22;30275;51.822;-0.326;2022-07-29T07:31:42;21.60;91.70
44565;DHT22;30275;51.822;-0.326;2022-07-29T07:34:07;21.60;91.70
44565;DHT22;30275;51.822;-0.326;2022-07-29T07:36:34;21.60;91.50
44565;DHT22;30275;51.822;-0.326;2022-07-29T07:38:59;21.60;91.40
44565;DHT22;30275;51.822;-0.326;2022-07-29T07:41:25;21.60;91.20
44565;DHT22;30275;51.822;-0.326;2022-07-29T07:43:51;21.60;91.30
44565;DHT22;30275;51.822;-0.326;2022-07-29T07:46:16;21.70;91.90
44565;DHT22;30275;51.822;-0.326;2022-07-29T07:48:42;21.70;92.40
44565;DHT22;30275;51.822;-0.326;2022-07-29T07:51:08;21.80;91.70
44565;DHT22;30275;51.822;-0.326;2022-07-29T07:53:34;21.80;91.50
44565;DHT22;30275;51.822;-0.326;2022-07-29T07:56:00;21.70;91.70
44565;DHT22;30275;51.822;-0.326;2022-07-29T07:58:26;21.80;92.30
44565;DHT22;30275;51.822;-0.326;2022-07-29T08:00:51;21.70;91.80
44565;DHT22;30275;51.822;-0.326;2022-07-29T08:03:17;21.70;91.40
44565;DHT22;30275;51.822;-0.326;2022-07-29T08:05:43;21.70;91.10
44565;DHT22;30275;51.822;-0.326;2022-07-29T08:08:09;21.70;91.20
44565;DHT22;30275;51.822;-0.326;2022-07-29T08:10:34;21.70;90.90
44565;DHT22;30275;51.822;-0.326;2022-07-29T08:13:20;21.70;90.70
44565;DHT22;30275;51.822;-0.326;2022-07-29T08:15:46;21.80;90.40
44565;DHT22;30275;51.822;-0.326;2022-07-29T08:18:14;21.80;90.30
44565;DHT22;30275;51.822;-0.326;2022-07-29T08:20:40;21.80;90.20
44565;DHT22;30275;51.822;-0.326;2022-07-29T08:23:07;21.80;90.20
44565;DHT22;30275;51.822;-0.326;2022-07-29T08:25:37;21.80;90.10
44565;DHT22;30275;51.822;-0.326;2022-07-29T08:28:04;21.80;90.30
44565;DHT22;30275;51.822;-0.326;2022-07-29T08:30:30;21.80;89.90
44565;DHT22;30275;51.822;-0.326;2022-07-29T08:32:57;21.80;88.70
44565;DHT22;30275;51.822;-0.326;2022-07-29T08:35:24;21.80;89.00
44565;DHT22;30275;51.822;-0.326;2022-07-29T08:37:50;21.80;89.00
44565;DHT22;30275;51.822;-0.326;2022-07-29T08:40:19;21.90;90.00
44565;DHT22;30275;51.822;-0.326;2022-07-29T08:42:46;21.80;90.20
44565;DHT22;30275;51.822;-0.326;2022-07-29T08:45:12;21.80;90.30
44565;DHT22;30275;51.822;-0.326;2022-07-29T08:47:41;21.80;90.10
44565;DHT22;30275;51.822;-0.326;2022-07-29T08:50:09;21.80;89.40
44565;DHT22;30275;51.822;-0.326;2022-07-29T08:52:37;21.80;88.80
44565;DHT22;30275;51.822;-0.326;2022-07-29T08:55:05;21.80;88.30
44565;DHT22;30275;51.822;-0.326;2022-07-29T08:57:33;21.90;86.70
44565;DHT22;30275;51.822;-0.326;2022-07-29T09:00:00;21.90;87.00
44565;DHT22;30275;51.822;-0.326;2022-07-29T09:02:29;21.80;87.00
44565;DHT22;30275;51.822;-0.326;2022-07-29T09:04:57;21.90;86.60
44565;DHT22;30275;51.822;-0.326;2022-07-29T09:07:25;21.90;87.60
44565;DHT22;30275;51.822;-0.326;2022-07-29T09:09:51;21.90;87.90
44565;DHT22;30275;51.822;-0.326;2022-07-29T09:12:17;21.90;88.10
44565;DHT22;30275;51.822;-0.326;2022-07-29T09:14:43;21.90;87.90
44565;DHT22;30275;51.822;-0.326;2022-07-29T09:17:08;22.00;88.70
44565;DHT22;30275;51.822;-0.326;2022-07-29T09:19:36;22.00;88.20
44565;DHT22;30275;51.822;-0.326;2022-07-29T09:22:04;22.10;88.40
44565;DHT22;30275;51.822;-0.326;2022-07-29T09:24:43;22.10;88.40
44565;DHT22;30275;51.822;-0.326;2022-07-29T09:27:20;22.10;88.50
44565;DHT22;30275;51.822;-0.326;2022-07-29T09:32:23;22.10;88.50
44565;DHT22;30275;51.822;-0.326;2022-07-29T09:34:49;22.10;88.60
44565;DHT22;30275;51.822;-0.326;2022-07-29T09:37:28;22.10;88.60
44565;DHT22;30275;51.822;-0.326;2022-07-29T09:39:54;22.10;88.60
44565;DHT22;30275;51.822;-0.326;2022-07-29T09:42:29;22.20;88.70
44565;DHT22;30275;51.822;-0.326;2022-07-29T09:44:57;22.20;88.90
44565;DHT22;30275;51.822;-0.326;2022-07-29T09:47:46;22.30;88.80
44565;DHT22;30275;51.822;-0.326;2022-07-29T09:50:17;22.30;89.00
44565;DHT22;30275;51.822;-0.326;2022-07-29T09:52:51;22.30;89.30
44565;DHT22;30275;51.822;-0.326;2022-07-29T09:55:18;22.40;90.00
44565;DHT22;30275;51.822;-0.326;2022-07-29T09:57:45;22.50;90.20
44565;DHT22;30275;51.822;-0.326;2022-07-29T10:00:17;22.50;90.00
44565;DHT22;30275;51.822;-0.326;2022-07-29T10:02:43;22.50;90.30
44565;DHT22;30275;51.822;-0.326;2022-07-29T10:05:26;22.50;89.90
44565;DHT22;30275;51.822;-0.326;2022-07-29T10:07:55;22.60;89.90
44565;DHT22;30275;51.822;-0.326;2022-07-29T10:10:27;22.50;89.60
44565;DHT22;30275;51.822;-0.326;2022-07-29T10:12:59;22.50;89.70
44565;DHT22;30275;51.822;-0.326;2022-07-29T10:15:26;22.50;89.50
44565;DHT22;30275;51.822;-0.326;2022-07-29T10:17:53;22.50;89.60
44565;DHT22;30275;51.822;-0.326;2022-07-29T10:20:20;22.50;89.30
44565;DHT22;30275;51.822;-0.326;2022-07-29T10:22:47;22.50;89.20
44565;DHT22;30275;51.822;-0.326;2022-07-29T10:25:15;22.50;89.10
44565;DHT22;30275;51.822;-0.326;2022-07-29T10:27:42;22.50;89.10
44565;DHT22;30275;51.822;-0.326;2022-07-29T10:30:09;22.50;89.20
44565;DHT22;30275;51.822;-0.326;2022-07-29T10:41:02;22.60;88.80
44565;DHT22;30275;51.822;-0.326;2022-07-29T10:43:50;22.60;88.70
44565;DHT22;30275;51.822;-0.326;2022-07-29T10:46:17;22.60;89.10
44565;DHT22;30275;51.822;-0.326;2022-07-29T10:57:30;22.70;89.20
44565;DHT22;30275;51.822;-0.326;2022-07-29T11:05:03;22.80;89.00
44565;DHT22;30275;51.822;-0.326;2022-07-29T11:07:31;22.80;89.00
44565;DHT22;30275;51.822;-0.326;2022-07-29T11:15:07;22.90;88.90
44565;DHT22;30275;51.822;-0.326;2022-07-29T11:26:16;22.90;88.80
44565;DHT22;30275;51.822;-0.326;2022-07-29T11:31:30;23.00;88.80
44565;DHT22;30275;51.822;-0.326;2022-07-29T11:39:33;23.10;88.80
44565;DHT22;30275;51.822;-0.326;2022-07-29T11:45:05;23.10;88.80
44565;DHT22;30275;51.822;-0.326;2022-07-29T11:47:36;23.10;88.70
44565;DHT22;30275;51.822;-0.326;2022-07-29T11:50:04;23.20;88.80
44565;DHT22;30275;51.822;-0.326;2022-07-29T11:52:38;23.20;88.80
44565;DHT22;30275;51.822;-0.326;2022-07-29T11:55:17;23.20;88.70
44565;DHT22;30275;51.822;-0.326;2022-07-29T12:00:37;23.20;88.60
44565;DHT22;30275;51.822;-0.326;2022-07-29T12:03:10;23.30;88.60
44565;DHT22;30275;51.822;-0.326;2022-07-29T12:05:39;23.30;88.60
44565;DHT22;30275;51.822;-0.326;2022-07-29T12:08:13;23.30;88.50
44565;DHT22;30275;51.822;-0.326;2022-07-29T12:10:40;23.40;88.50
44565;DHT22;30275;51.822;-0.326;2022-07-29T12:13:06;23.40;88.50
44565;DHT22;30275;51.822;-0.326;2022-07-29T12:15:32;23.40;88.50
44565;DHT22;30275;51.822;-0.326;2022-07-29T12:17:58;23.50;88.40
44565;DHT22;30275;51.822;-0.326;2022-07-29T12:20:29;23.50;88.40
44565;DHT22;30275;51.822;-0.326;2022-07-29T12:22:55;23.50;88.30
44565;DHT22;30275;51.822;-0.326;2022-07-29T12:25:23;23.60;88.40
44565;DHT22;30275;51.822;-0.326;2022-07-29T12:28:06;23.60;88.30
44565;DHT22;30275;51.822;-0.326;2022-07-29T12:30:46;23.60;88.20
44565;DHT22;30275;51.822;-0.326;2022-07-29T12:35:45;23.70;88.20
44565;DHT22;30275;51.822;-0.326;2022-07-29T12:38:11;23.70;88.10
44565;DHT22;30275;51.822;-0.326;2022-07-29T12:40:38;23.70;88.00
44565;DHT22;30275;51.822;-0.326;2022-07-29T12:45:33;23.80;88.00
44565;DHT22;30275;51.822;-0.326;2022-07-29T12:47:58;23.90;88.00
44565;DHT22;30275;51.822;-0.326;2022-07-29T12:50:24;23.90;88.00
44565;DHT22;30275;51.822;-0.326;2022-07-29T12:52:50;23.90;88.00
44565;DHT22;30275;51.822;-0.326;2022-07-29T12:58:05;24.00;87.90
44565;DHT22;30275;51.822;-0.326;2022-07-29T13:00:30;24.00;87.80
44565;DHT22;30275;51.822;-0.326;2022-07-29T13:02:57;24.00;87.80
44565;DHT22;30275;51.822;-0.326;2022-07-29T13:05:24;24.00;87.80
44565;DHT22;30275;51.822;-0.326;2022-07-29T13:08:14;24.00;88.30
44565;DHT22;30275;51.822;-0.326;2022-07-29T13:10:40;24.10;87.80
44565;DHT22;30275;51.822;-0.326;2022-07-29T13:13:11;24.10;87.70
44565;DHT22;30275;51.822;-0.326;2022-07-29T13:15:38;24.10;87.70
44565;DHT22;30275;51.822;-0.326;2022-07-29T13:18:25;24.20;87.70
44565;DHT22;30275;51.822;-0.326;2022-07-29T13:20:50;24.20;87.60
44565;DHT22;30275;51.822;-0.326;2022-07-29T13:23:16;24.30;87.60
44565;DHT22;30275;51.822;-0.326;2022-07-29T13:25:42;24.30;87.60
44565;DHT22;30275;51.822;-0.326;2022-07-29T13:28:07;24.30;87.50
44565;DHT22;30275;51.822;-0.326;2022-07-29T13:30:33;24.30;87.40
44565;DHT22;30275;51.822;-0.326;2022-07-29T13:32:59;24.40;87.40
44565;DHT22;30275;51.822;-0.326;2022-07-29T13:35:24;24.40;87.40
44565;DHT22;30275;51.822;-0.326;2022-07-29T13:37:50;24.40;87.30
44565;DHT22;30275;51.822;-0.326;2022-07-29T13:40:16;24.50;87.40
44565;DHT22;30275;51.822;-0.326;2022-07-29T13:42:42;24.50;87.90
44565;DHT22;30275;51.822;-0.326;2022-07-29T13:45:08;24.50;87.20
44565;DHT22;30275;51.822;-0.326;2022-07-29T13:47:34;24.50;87.20
44565;DHT22;30275;51.822;-0.326;2022-07-29T13:50:01;24.50;87.20
44565;DHT22;30275;51.822;-0.326;2022-07-29T13:52:28;24.50;87.30
44565;DHT22;30275;51.822;-0.326;2022-07-29T13:54:53;24.50;87.30
44565;DHT22;30275;51.822;-0.326;2022-07-29T13:57:19;24.50;87.40
44565;DHT22;30275;51.822;-0.326;2022-07-29T13:59:45;24.50;87.40
44565;DHT22;30275;51.822;-0.326;2022-07-29T14:02:11;24.50;87.30
44565;DHT22;30275;51.822;-0.326;2022-07-29T14:04:37;24.50;87.40
44565;DHT22;30275;51.822;-0.326;2022-07-29T14:07:03;24.50;87.40
44565;DHT22;30275;51.822;-0.326;2022-07-29T14:09:30;24.50;87.40
44565;DHT22;30275;51.822;-0.326;2022-07-29T14:11:56;24.60;87.40
44565;DHT22;30275;51.822;-0.326;2022-07-29T14:14:22;24.60;87.40
44565;DHT22;30275;51.822;-0.326;2022-07-29T14:16:48;24.60;87.30
44565;DHT22;30275;51.822;-0.326;2022-07-29T14:19:13;24.60;87.30
44565;DHT22;30275;51.822;-0.326;2022-07-29T14:21:39;24.70;87.30
44565;DHT22;30275;51.822;-0.326;2022-07-29T14:24:05;24.60;87.40
44565;DHT22;30275;51.822;-0.326;2022-07-29T14:26:31;24.60;87.40
44565;DHT22;30275;51.822;-0.326;2022-07-29T14:28:57;24.60;87.40
44565;DHT22;30275;51.822;-0.326;2022-07-29T14:31:23;24.60;87.50
44565;DHT22;30275;51.822;-0.326;2022-07-29T14:33:49;24.60;87.50
44565;DHT22;30275;51.822;-0.326;2022-07-29T14:36:14;24.60;87.50
44565;DHT22;30275;51.822;-0.326;2022-07-29T14:38:40;24.60;87.50
44565;DHT22;30275;51.822;-0.326;2022-07-29T14:41:07;24.60;87.50
44565;DHT22;30275;51.822;-0.326;2022-07-29T14:43:33;24.60;87.50
44565;DHT22;30275;51.822;-0.326;2022-07-29T14:46:00;24.60;87.60
44565;DHT22;30275;51.822;-0.326;2022-07-29T14:48:26;24.60;87.60
44565;DHT22;30275;51.822;-0.326;2022-07-29T14:50:51;24.60;87.60
44565;DHT22;30275;51.822;-0.326;2022-07-29T14:53:17;24.60;87.60
44565;DHT22;30275;51.822;-0.326;2022-07-29T14:55:43;24.60;87.70
44565;DHT22;30275;51.822;-0.326;2022-07-29T14:58:09;24.50;87.70
44565;DHT22;30275;51.822;-0.326;2022-07-29T15:00:35;24.60;87.80
44565;DHT22;30275;51.822;-0.326;2022-07-29T15:03:02;24.60;87.80
44565;DHT22;30275;51.822;-0.326;2022-07-29T15:05:29;24.60;87.80
44565;DHT22;30275;51.822;-0.326;2022-07-29T15:07:55;24.50;87.80
44565;DHT22;30275;51.822;-0.326;2022-07-29T15:10:20;24.60;87.80
44565;DHT22;30275;51.822;-0.326;2022-07-29T15:12:46;24.60;87.80
44565;DHT22;30275;51.822;-0.326;2022-07-29T15:15:12;24.60;87.80
44565;DHT22;30275;51.822;-0.326;2022-07-29T15:17:37;24.60;87.90
44565;DHT22;30275;51.822;-0.326;2022-07-29T15:20:04;24.60;87.90
44565;DHT22;30275;51.822;-0.326;2022-07-29T15:22:30;24.60;87.90
44565;DHT22;30275;51.822;-0.326;2022-07-29T15:24:55;24.60;87.90
44565;DHT22;30275;51.822;-0.326;2022-07-29T15:27:21;24.60;87.90
44565;DHT22;30275;51.822;-0.326;2022-07-29T15:29:47;24.60;87.90
44565;DHT22;30275;51.822;-0.326;2022-07-29T15:32:13;24.60;88.00
44565;DHT22;30275;51.822;-0.326;2022-07-29T15:34:39;24.60;88.00
44565;DHT22;30275;51.822;-0.326;2022-07-29T15:37:05;24.60;88.00
44565;DHT22;30275;51.822;-0.326;2022-07-29T15:39:31;24.60;88.10
44565;DHT22;30275;51.822;-0.326;2022-07-29T15:41:57;24.60;88.10
44565;DHT22;30275;51.822;-0.326;2022-07-29T15:44:25;24.50;88.10
44565;DHT22;30275;51.822;-0.326;2022-07-29T15:46:51;24.60;88.20
44565;DHT22;30275;51.822;-0.326;2022-07-29T15:49:39;24.60;88.20
44565;DHT22;30275;51.822;-0.326;2022-07-29T15:52:09;24.50;88.20
44565;DHT22;30275;51.822;-0.326;2022-07-29T15:54:37;24.60;88.30
44565;DHT22;30275;51.822;-0.326;2022-07-29T15:57:05;24.60;88.30
44565;DHT22;30275;51.822;-0.326;2022-07-29T15:59:31;24.50;88.20
44565;DHT22;30275;51.822;-0.326;2022-07-29T16:01:58;24.50;88.30
44565;DHT22;30275;51.822;-0.326;2022-07-29T16:04:24;24.50;88.30
44565;DHT22;30275;51.822;-0.326;2022-07-29T16:06:49;24.50;88.20
44565;DHT22;30275;51.822;-0.326;2022-07-29T16:09:16;24.50;88.30
44565;DHT22;30275;51.822;-0.326;2022-07-29T16:11:43;24.60;88.40
44565;DHT22;30275;51.822;-0.326;2022-07-29T16:14:09;24.50;88.30
44565;DHT22;30275;51.822;-0.326;2022-07-29T16:16:36;24.50;88.30
44565;DHT22;30275;51.822;-0.326;2022-07-29T16:19:03;24.60;88.30
44565;DHT22;30275;51.822;-0.326;2022-07-29T16:21:29;24.60;88.30
44565;DHT22;30275;51.822;-0.326;2022-07-29T16:23:56;24.50;88.20
44565;DHT22;30275;51.822;-0.326;2022-07-29T16:26:22;24.50;88.40
44565;DHT22;30275;51.822;-0.326;2022-07-29T16:28:48;24.60;88.40
44565;DHT22;30275;51.822;-0.326;2022-07-29T16:31:14;24.60;88.30
44565;DHT22;30275;51.822;-0.326;2022-07-29T16:33:40;24.60;88.30
44565;DHT22;30275;51.822;-0.326;2022-07-29T16:36:06;24.60;88.30
44565;DHT22;30275;51.822;-0.326;2022-07-29T16:38:32;24.60;88.30
44565;DHT22;30275;51.822;-0.326;2022-07-29T16:40:57;24.70;88.40